Dyersburg, Tennessee
Current Conditions -  °F | °C
As of 5:15 PM on Saturday 20 Dec 2014 (Local Time) from KDYR Reporting Station
Clear Clear  
Wind Chill: 41°   Ceiling: Unl
Heat Index: 41°   Visibility: 10mi
Dew Point: 21°   Wind: 3mph
Humidity: 45%   Direction: 40°NE
Pressure: 30.26"   Gusts: NA
Location:  36.03°N, 89.38°W
Report Text: KDYR 202315Z 04003KT 10SM CLR 05/M06 A3026 RMK AO1
Loading
Personal Weather Stations






























Interactive Weather Map New forecast layout! Learn more

10-Day Weather Forecast

Advertisements
Track Severe Weather on mobile